createdAt,value
2023-04-16T14:07:06.896Z,4.60
2023-04-16T14:09:37.579Z,4.30
2023-04-16T14:12:08.254Z,5.50
2023-04-16T14:14:38.569Z,9.00
2023-04-16T14:17:09.035Z,3.10
2023-04-16T14:19:39.443Z,3.80
2023-04-16T14:22:09.859Z,4.70
2023-04-16T14:24:40.070Z,4.30
2023-04-16T14:27:10.848Z,3.50
2023-04-16T14:29:41.893Z,6.20
2023-04-16T14:32:12.029Z,4.50
2023-04-16T14:34:41.673Z,5.00
2023-04-16T14:37:11.784Z,4.50
2023-04-16T14:39:41.961Z,4.40
2023-04-16T14:42:11.886Z,4.70
2023-04-16T14:44:41.669Z,4.10
2023-04-16T14:47:11.765Z,7.30
2023-04-16T14:49:41.751Z,4.80
2023-04-16T14:52:12.019Z,5.70
2023-04-16T14:54:41.670Z,4.20
2023-04-16T14:57:10.711Z,3.70
2023-04-16T14:59:40.611Z,4.00
2023-04-16T15:02:11.275Z,4.10
2023-04-16T15:04:41.145Z,4.70
2023-04-16T15:07:11.699Z,4.70
2023-04-16T15:09:41.579Z,3.70
2023-04-16T15:12:11.439Z,3.70
2023-04-16T15:14:41.167Z,3.30
2023-04-16T15:17:11.621Z,3.70
2023-04-16T15:19:41.319Z,5.90
2023-04-16T15:22:11.370Z,4.90
2023-04-16T15:24:41.588Z,5.40
2023-04-16T15:27:12.233Z,5.20
2023-04-16T15:29:42.201Z,4.90
2023-04-16T15:32:12.786Z,4.90
2023-04-16T15:34:42.478Z,5.90
2023-04-16T15:37:12.041Z,5.10
2023-04-16T15:39:42.095Z,4.00
2023-04-16T15:42:11.968Z,4.10
2023-04-16T15:44:41.584Z,5.40
2023-04-16T15:47:11.237Z,3.80
2023-04-16T15:49:41.046Z,4.40
2023-04-16T15:52:12.493Z,4.60
2023-04-16T15:54:42.764Z,5.60
2023-04-16T15:57:12.389Z,5.90
2023-04-16T15:59:41.317Z,4.00
2023-04-16T16:02:10.829Z,5.50
2023-04-16T16:04:47.227Z,5.30
2023-04-16T16:07:20.366Z,5.00
2023-04-16T16:09:53.501Z,5.40
2023-04-16T16:12:23.878Z,5.80
2023-04-16T16:14:53.698Z,4.80
2023-04-16T16:17:23.374Z,5.60
2023-04-16T16:19:53.682Z,3.60
2023-04-16T16:22:24.293Z,3.60
2023-04-16T16:24:56.802Z,7.10
2023-04-16T16:27:27.350Z,4.10
2023-04-16T16:29:56.204Z,4.70
2023-04-16T16:32:25.788Z,3.80
2023-04-16T16:34:55.434Z,5.00
2023-04-16T16:37:25.070Z,5.60
2023-04-16T16:39:54.643Z,5.00
2023-04-16T16:42:24.393Z,4.40
2023-04-16T16:44:56.020Z,5.10
2023-04-16T16:47:27.422Z,3.30
2023-04-16T16:49:57.757Z,3.30
2023-04-16T16:52:28.036Z,4.40
2023-04-16T16:54:58.740Z,5.50
2023-04-16T16:57:28.747Z,4.50
2023-04-16T16:59:59.301Z,5.00
2023-04-16T17:02:29.929Z,4.50
2023-04-16T17:05:01.772Z,4.70
2023-04-16T17:07:32.885Z,5.30
2023-04-16T17:10:06.080Z,3.70
2023-04-16T17:12:37.295Z,5.20
2023-04-16T17:15:08.554Z,4.80
2023-04-16T17:17:39.185Z,5.80
2023-04-16T17:20:11.308Z,5.00
2023-04-16T17:22:41.221Z,6.30
2023-04-16T17:25:11.923Z,4.30
2023-04-16T17:27:42.407Z,3.30
2023-04-16T17:30:12.961Z,5.60
2023-04-16T17:32:42.583Z,4.90
2023-04-16T17:35:14.319Z,7.80
2023-04-16T17:37:44.909Z,7.00
2023-04-16T17:40:18.041Z,5.80
2023-04-16T17:42:50.387Z,8.30
2023-04-16T17:45:20.124Z,7.10
2023-04-16T17:47:50.441Z,4.60
2023-04-16T17:50:20.044Z,8.10
2023-04-16T17:52:49.634Z,6.00
2023-04-16T17:55:19.195Z,9.30
2023-04-16T17:57:49.507Z,6.30
2023-04-16T18:00:20.204Z,5.00
2023-04-16T18:02:50.121Z,5.80
2023-04-16T18:05:20.323Z,5.50
2023-04-16T18:07:51.035Z,6.70
2023-04-16T18:10:21.265Z,8.60
2023-04-16T18:12:51.112Z,5.40
2023-04-16T18:15:21.313Z,5.40
2023-04-16T18:17:52.035Z,5.40
2023-04-16T18:20:23.713Z,8.10
2023-04-16T18:22:54.348Z,6.70
2023-04-16T18:25:33.924Z,5.80
2023-04-16T18:28:06.773Z,5.70
2023-04-16T18:30:40.466Z,4.70
2023-04-16T18:33:42.711Z,5.40
2023-04-16T18:36:05.015Z,8.40
2023-04-16T18:38:35.086Z,6.10
2023-04-16T18:41:05.379Z,7.40
2023-04-16T18:43:35.048Z,4.80
2023-04-16T18:46:04.573Z,7.30
2023-04-16T18:48:34.280Z,7.30
2023-04-16T18:51:03.260Z,6.30
2023-04-16T18:53:33.815Z,5.60
2023-04-16T18:56:04.583Z,5.40
2023-04-16T18:58:34.918Z,6.90
2023-04-16T19:01:05.365Z,6.60
2023-04-16T19:03:35.746Z,6.00
2023-04-16T19:06:06.459Z,7.70
2023-04-16T19:08:35.988Z,8.70
2023-04-16T19:11:05.609Z,6.40
2023-04-16T19:13:36.296Z,6.70
2023-04-16T19:16:11.920Z,8.10
2023-04-16T19:18:41.015Z,7.00
2023-04-16T19:21:12.358Z,6.60
2023-04-16T19:23:41.952Z,7.60
2023-04-16T19:26:11.508Z,7.00
2023-04-16T19:28:42.957Z,11.40
2023-04-16T19:31:12.618Z,10.80
2023-04-16T19:33:42.718Z,10.80
2023-04-16T19:36:12.599Z,10.00
2023-04-16T19:38:42.106Z,10.00
2023-04-16T19:41:12.123Z,11.10
2023-04-16T19:43:42.101Z,15.40
2023-04-16T19:46:11.568Z,15.40
2023-04-16T19:48:41.672Z,16.20
2023-04-16T19:51:11.973Z,17.40
2023-04-16T19:53:42.709Z,14.50
2023-04-16T19:56:14.208Z,14.00
2023-04-16T19:58:44.629Z,19.90
2023-04-16T20:01:14.954Z,15.00
2023-04-16T20:03:45.036Z,14.60
2023-04-16T20:06:15.122Z,12.00
2023-04-16T20:08:45.256Z,10.10
2023-04-16T20:11:15.413Z,17.40
2023-04-16T20:13:49.067Z,16.40
2023-04-16T20:16:24.375Z,13.30
2023-04-16T20:18:57.378Z,15.30
2023-04-16T20:21:30.444Z,16.30
2023-04-16T20:24:03.358Z,14.00
2023-04-16T20:26:37.107Z,19.40
2023-04-16T20:29:07.029Z,11.80
2023-04-16T20:31:37.356Z,12.30
2023-04-16T20:34:07.749Z,10.50
2023-04-16T20:36:37.677Z,8.00
2023-04-16T20:39:08.604Z,8.40
2023-04-16T20:41:44.320Z,7.00
2023-04-16T20:44:19.665Z,6.90
2023-04-16T20:46:51.120Z,5.70
2023-04-16T20:49:20.029Z,5.20
2023-04-16T20:51:50.190Z,5.80
2023-04-16T20:54:20.178Z,5.20
2023-04-16T20:56:50.855Z,5.80
2023-04-16T20:59:20.881Z,5.60
2023-04-16T21:01:50.931Z,6.00
2023-04-16T21:04:21.793Z,6.30
2023-04-16T21:06:54.095Z,6.30
2023-04-16T21:09:24.390Z,7.20
2023-04-16T21:11:53.982Z,5.70
2023-04-16T21:14:24.103Z,5.80
2023-04-16T21:16:53.599Z,5.10
2023-04-16T21:19:23.675Z,5.90
2023-04-16T21:21:53.666Z,6.60
2023-04-16T21:24:23.759Z,5.20
2023-04-16T21:26:53.280Z,5.60
2023-04-16T21:29:22.754Z,6.20
2023-04-16T21:31:52.773Z,4.80
2023-04-16T21:34:21.801Z,5.40
2023-04-16T21:36:51.866Z,6.40
2023-04-16T21:39:22.162Z,6.80
2023-04-16T21:41:51.663Z,5.40
2023-04-16T21:44:21.631Z,4.90
2023-04-16T21:46:52.599Z,4.20
2023-04-16T21:49:22.707Z,4.90
2023-04-16T21:51:59.737Z,4.40
2023-04-16T21:54:29.203Z,4.80
2023-04-16T21:56:59.146Z,5.50
2023-04-16T21:59:29.204Z,5.10
2023-04-16T22:01:58.713Z,5.70
2023-04-16T22:04:37.525Z,5.60
2023-04-16T22:07:12.173Z,4.10
2023-04-16T22:09:44.961Z,3.80
2023-04-16T22:12:15.871Z,3.70
2023-04-16T22:14:59.775Z,3.40
2023-04-16T22:17:34.854Z,4.00
2023-04-16T22:20:12.696Z,5.60
2023-04-16T22:22:43.285Z,5.00
2023-04-16T22:25:13.727Z,5.30
2023-04-16T22:27:44.098Z,4.00
2023-04-16T22:30:14.219Z,5.50
2023-04-16T22:32:44.217Z,5.00
2023-04-16T22:35:13.934Z,4.10
2023-04-16T22:37:43.728Z,5.40
2023-04-16T22:40:12.656Z,4.70
2023-04-16T22:42:42.839Z,4.40
2023-04-16T22:45:13.213Z,4.90
2023-04-16T22:47:43.694Z,5.80
2023-04-16T22:50:13.074Z,5.50
2023-04-16T22:52:42.528Z,5.10
2023-04-16T22:55:12.313Z,4.80
2023-04-16T22:57:42.525Z,3.90
2023-04-16T23:00:18.061Z,5.40
2023-04-16T23:02:48.388Z,4.40
2023-04-16T23:05:18.506Z,8.10
2023-04-16T23:07:48.751Z,5.30
2023-04-16T23:10:18.405Z,3.80
2023-04-16T23:12:48.101Z,3.90
2023-04-16T23:15:18.606Z,3.40
2023-04-16T23:17:48.551Z,3.50
2023-04-16T23:20:18.731Z,3.60
2023-04-16T23:22:48.966Z,4.00
2023-04-16T23:25:18.665Z,4.70
2023-04-16T23:27:49.663Z,4.80
2023-04-16T23:30:19.743Z,4.90
2023-04-16T23:32:50.216Z,3.40
2023-04-16T23:35:23.738Z,3.30
2023-04-16T23:37:53.357Z,4.50
2023-04-16T23:40:23.359Z,3.50
2023-04-16T23:42:53.359Z,6.30
2023-04-16T23:45:22.876Z,5.40
2023-04-16T23:47:53.168Z,4.40
2023-04-16T23:50:23.206Z,4.40
2023-04-16T23:52:53.235Z,4.50
2023-04-16T23:55:23.022Z,4.40
2023-04-16T23:57:53.130Z,5.40
